Flight Track Log - Related Links

Times and Time Zones

All times are in EST time to prevent confusion due to time zone crossing. See the SWA1379 flight status page for this flight to view local times or setup timezone preferences in your user account.

Time Position Orientation Groundspeed Altitude Reporting Facility
EST Latitude Longitude Course Direction KTS MPH feet Rate Location/Type
Sun 04:59:29 PM 26.0739 -80.1806 275° West 156 180 900  Level Miami Center
Sun 05:00:48 PM 26.0806 -80.2594 275° West 220 253 3,800 1,714 Climbing Miami Center
Sun 05:01:35 PM 26.1297 -80.2931 328° Northwest 287 330 4,500 885 Climbing Miami Center
Sun 05:01:49 PM 26.1464 -80.2983 344° North 302 348 4,700 1,900 Climbing Miami Center
Sun 05:02:35 PM 26.2089 -80.3094 351° North 302 348 6,400 2,943 Climbing Miami Center
Sun 05:03:35 PM 26.2856 -80.3347 344° North 299 344 9,900 2,600 Climbing Miami Center
Sun 05:04:35 PM 26.3644 -80.3581 345° North 307 353 11,600 2,300 Climbing Miami Center
Sun 05:05:35 PM 26.4681 -80.3889 345° North 338 389 14,500 2,200 Climbing Miami Center
Sun 05:06:35 PM 26.5592 -80.4147 346° North 361 415 16,000 1,000 Climbing Miami Center
Sun 05:07:35 PM 26.6667 -80.4622 338° Northwest 369 425 16,500 1,700 Climbing Miami Center
Sun 05:08:35 PM 26.7492 -80.4997 338° Northwest 367 422 19,400 2,000 Climbing Miami Center
Sun 05:09:35 PM 26.8442 -80.5444 337° Northwest 367 422 20,500 1,550 Climbing Miami Center
Sun 05:10:35 PM 26.9475 -80.5919 338° Northwest 380 437 22,500 1,950 Climbing Miami Center
Sun 05:11:35 PM 27.0506 -80.6397 338° Northwest 387 445 24,400 1,700 Climbing Miami Center
Sun 05:12:35 PM 27.1558 -80.6875 338° Northwest 399 459 25,900 1,450 Climbing Miami Center
Sun 05:13:35 PM 27.2611 -80.7353 338° Northwest 399 459 27,300 1,450 Climbing Miami Center
Sun 05:14:35 PM 27.3806 -80.7908 338° Northwest 410 472 28,800 1,550 Climbing Miami Center
Sun 05:15:35 PM 27.4919 -80.8414 338° Northwest 421 484 30,400 1,550 Climbing Miami Center
Sun 05:16:35 PM 27.5992 -80.8919 337° Northwest 421 484 31,900 1,300 Climbing Miami Center
Sun 05:17:35 PM 27.7061 -80.9425 337° Northwest 421 484 33,000 1,000 Climbing Miami Center
Sun 05:18:35 PM 27.8153 -80.9936 338° Northwest 421 484 33,900 500 Climbing Miami Center
Sun 05:19:35 PM 27.9247 -81.0419 339° North 416 479 34,000 50 Climbing Miami Center
Sun 05:20:35 PM 28.0317 -81.0931 337° Northwest 416 479 34,000  Level Miami Center
Sun 05:21:35 PM 28.1386 -81.1464 336° Northwest 411 473 34,000  Level Miami Center
Sun 05:22:35 PM 28.2475 -81.1978 337° Northwest 416 479 34,000  Level Miami Center
Sun 05:23:35 PM 28.3544 -81.2492 337° Northwest 416 479 34,000 -500 Level Miami Center
Sun 05:24:35 PM 28.4656 -81.3006 338° Northwest 416 479 33,000 -950 Descending Miami Center
Sun 05:25:35 PM 28.5792 -81.3431 342° North 421 484 32,100 -938 Descending Miami Center
Sun 05:26:43 PM 28.7186 -81.3514 357° North 436 502 31,000 -984 Descending Jacksonville Center
Sun 05:27:43 PM 28.8419 -81.3614 356° North 436 502 30,000 -1,050 Descending Jacksonville Center
Sun 05:28:43 PM 28.9611 -81.3739 355° North 436 502 28,900 -1,300 Descending Jacksonville Center
Sun 05:29:43 PM 29.0781 -81.3839 356° North 436 502 27,400 -1,850 Descending Jacksonville Center
Sun 05:30:43 PM 29.1931 -81.3989 354° North 430 495 25,200 -2,288 Descending Jacksonville Center
Sun 05:31:41 PM 29.3058 -81.4089 356° North 412 474 22,900 -2,400 Descending Jacksonville Center
Sun 05:31:43 PM 29.3081 -81.4136 298° West 418 481 22,800 -1,500 Descending Jacksonville Center
Sun 05:31:53 PM 29.3228 -81.4111 North 410 472 22,600 -2,100 Descending Jacksonville Center
Sun 05:32:43 PM 29.4189 -81.4217 355° North 406 467 20,700 -2,262 Descending Jacksonville Center
Sun 05:32:54 PM 29.4375 -81.4261 348° North 391 450 20,300 -2,200 Descending Jacksonville Center
Sun 05:33:43 PM 29.5211 -81.4344 355° North 392 451 18,500 -2,262 Descending Jacksonville Center
Sun 05:33:55 PM 29.5442 -81.4364 356° North 385 443 18,000 -2,100 Descending Jacksonville Center
Sun 05:34:43 PM 29.6156 -81.4736 336° Northwest 358 412 16,400 -1,967 Descending Jacksonville Center
Sun 05:34:56 PM 29.6283 -81.4900 312° West 328 377 16,000 -1,800 Descending Jacksonville Center
Sun 05:35:43 PM 29.6811 -81.5492 316° Northwest 332 382 14,600 -1,791 Descending Jacksonville Center
Sun 05:36:03 PM 29.7044 -81.5750 316° Northwest 341 392 14,000 -2,000 Descending Jacksonville Center
Sun 05:36:43 PM 29.7467 -81.6272 313° West 337 388 12,600 -2,066 Descending Jacksonville Center
Sun 05:37:04 PM 29.7781 -81.6458 333° Northwest 346 398 11,900 -1,600 Descending Jacksonville Center
Sun 05:37:43 PM 29.8389 -81.6594 349° North 331 381 11,000 -1,200 Descending Jacksonville Center
Sun 05:38:04 PM 29.8722 -81.6614 357° North 339 390 10,700 -1,000 Descending Jacksonville Center
Sun 05:38:43 PM 29.9267 -81.6728 350° North 319 367 10,000 -1,279 Descending Jacksonville Center
Sun 05:39:05 PM 29.9558 -81.6794 349° North 303 349 9,400 -1,700 Descending Jacksonville Center
Sun 05:39:43 PM 30.0122 -81.6764 North 309 356 8,300 -1,645 Descending Jacksonville Center
Sun 05:40:07 PM 30.0436 -81.6783 357° North 310 357 7,700 -1,500 Descending Jacksonville Center
Sun 05:40:43 PM 30.0978 -81.6803 358° North 309 356 6,800 -1,600 Descending Jacksonville Center
Sun 05:41:07 PM 30.1333 -81.6797 North 299 344 6,100 -1,765 Descending Jacksonville Center
Sun 05:42:08 PM 30.2106 -81.6786 North 284 327 4,300 -1,475 Descending Jacksonville Center
Sun 05:43:09 PM 30.2856 -81.6681 North 272 313 3,100 -885 Descending Jacksonville Center
Sun 05:44:10 PM 30.3522 -81.6383 21° North 236 272 2,500 -545 Descending Jacksonville Center
Sun 05:45:10 PM 30.4064 -81.6161 19° North 186 214 2,000 -645 Descending Jacksonville Center
Sun 05:46:11 PM 30.4419 -81.6347 336° Northwest 138 159 1,200 -761 Descending Jacksonville Center
Sun 05:47:24 PM 30.4694 -81.6706 312° West 135 155 300 -740 Descending Jacksonville Center
Sun 05:49:00 PM 30.4833 -81.6833 23° Northeast  Level FlightAware Approximate
Sun 05:56:00 PM 30.4941 -81.6878 23° Northeast  Level Estimated

Login

Don't have an account? Register now (free) for customized features, flight alerts, and more!